map of ABI home
ABI - Airport
Location
City:  Abilene, Texas, United States
Name:Abilene Regional
ICAO:KABI
IATA:ABI
FAA LID:ABI

Details
Type:Airport (Part 139 Class I)
Use:Public/Civil
Latitude:3224'41"N (32.411333)
Longitude:9940'55"W (-99.681888)
Datum:WGS 1984
Elevation:1790 ft (546 m)
Variation:4.84E (WMM2015 magnetic declination)
-0.11 annual change
Runways:3
Longest:7208 × 150 ft (2197 × 45.5 m), paved

Time
Time Zone:UTC-6 (DST-5)
Local Time:

Weather
METAR:KABI 162152Z 21011G21KT 10SM CLR 16/09 A3005 RMK AO2 SLP166 T01560094
TAF:KABI 161720Z 1618/1718 21009KT P6SM SCT010 BKN100
FM162300 22012KT P6SM SCT100

Related Locations
Nearby:
Farthest:RRG: 11076 mi / 17824 km
Plaine Corail [Sir Gatan Duval Airport (Plaine Corail Airport)], Rodrigues Island, MU

Find:

   beyond  
but within

Other Information
Maps:
Delays:
NOTAMs:
Links:
Sources:

  
  • flag of United States
  • flag of Texas
  

Airport Diagram

Airport diagram for ABI

Airport diagram PDF from FAA

Sectional Chart

Flight Planning
at skyvector.com

Satellite Image

Google Maps Satellite view

 

Copyright © 2004-2019 Karl L. Swartz. All rights reserved.
The Great Circle Mapper name and logo are trademarks of the Great Circle Mapper.
All other trademarks mentioned herein belong to their respective owners.
Please see credits for attibutions and further copyright information.

  Follow gcmap on Facebook Follow gcmap on Twitter Follow gcmap on Google+ GCmap on LinkedIn

hCard Microformat

Geo Microformat